sensor_id;sensor_type;location;lat;lon;timestamp;temperature;humidity
69533;DHT22;56729;52.036;5.332;2022-11-20T00:00:16;-0.60;99.90
69533;DHT22;56729;52.036;5.332;2022-11-20T00:01:23;-0.60;99.90
69533;DHT22;56729;52.036;5.332;2022-11-20T00:02:26;-0.60;99.90
69533;DHT22;56729;52.036;5.332;2022-11-20T00:03:28;-0.60;99.90
69533;DHT22;56729;52.036;5.332;2022-11-20T00:04:29;-0.60;99.90
69533;DHT22;56729;52.036;5.332;2022-11-20T00:05:32;-0.60;99.90
69533;DHT22;56729;52.036;5.332;2022-11-20T00:06:34;-0.70;99.90
69533;DHT22;56729;52.036;5.332;2022-11-20T00:07:36;-0.70;99.90
69533;DHT22;56729;52.036;5.332;2022-11-20T00:08:38;-0.70;99.90
69533;DHT22;56729;52.036;5.332;2022-11-20T00:09:40;-0.80;99.90
69533;DHT22;56729;52.036;5.332;2022-11-20T00:10:42;-0.80;99.90
69533;DHT22;56729;52.036;5.332;2022-11-20T00:11:44;-0.80;99.90
69533;DHT22;56729;52.036;5.332;2022-11-20T00:12:45;-0.80;99.90
69533;DHT22;56729;52.036;5.332;2022-11-20T00:13:49;-0.80;99.90
69533;DHT22;56729;52.036;5.332;2022-11-20T00:14:51;-0.80;99.90
69533;DHT22;56729;52.036;5.332;2022-11-20T00:15:57;-0.80;99.90
69533;DHT22;56729;52.036;5.332;2022-11-20T00:17:00;-0.80;99.90
69533;DHT22;56729;52.036;5.332;2022-11-20T00:18:01;-0.80;99.90
69533;DHT22;56729;52.036;5.332;2022-11-20T00:19:04;-0.80;99.90
69533;DHT22;56729;52.036;5.332;2022-11-20T00:20:06;-0.80;99.90
69533;DHT22;56729;52.036;5.332;2022-11-20T00:21:11;-0.80;99.90
69533;DHT22;56729;52.036;5.332;2022-11-20T00:22:14;-0.80;99.90
69533;DHT22;56729;52.036;5.332;2022-11-20T00:23:15;-0.80;99.90
69533;DHT22;56729;52.036;5.332;2022-11-20T00:24:17;-0.80;99.90
69533;DHT22;56729;52.036;5.332;2022-11-20T00:25:19;-0.80;99.90
69533;DHT22;56729;52.036;5.332;2022-11-20T00:26:23;-0.80;99.90
69533;DHT22;56729;52.036;5.332;2022-11-20T00:27:25;-0.80;99.90
69533;DHT22;56729;52.036;5.332;2022-11-20T00:28:27;-0.80;99.90
69533;DHT22;56729;52.036;5.332;2022-11-20T00:29:29;-0.80;99.90
69533;DHT22;56729;52.036;5.332;2022-11-20T00:30:31;-0.80;99.90
69533;DHT22;56729;52.036;5.332;2022-11-20T00:31:34;-0.80;99.90
69533;DHT22;56729;52.036;5.332;2022-11-20T00:32:36;-0.80;99.90
69533;DHT22;56729;52.036;5.332;2022-11-20T00:33:38;-0.80;99.90
69533;DHT22;56729;52.036;5.332;2022-11-20T00:34:40;-0.80;99.90
69533;DHT22;56729;52.036;5.332;2022-11-20T00:35:42;-0.80;99.90
69533;DHT22;56729;52.036;5.332;2022-11-20T00:36:44;-0.80;99.90
69533;DHT22;56729;52.036;5.332;2022-11-20T00:37:46;-0.80;99.90
69533;DHT22;56729;52.036;5.332;2022-11-20T00:38:51;-0.80;99.90
69533;DHT22;56729;52.036;5.332;2022-11-20T00:39:54;-0.80;99.90
69533;DHT22;56729;52.036;5.332;2022-11-20T00:41:00;-0.80;99.90
69533;DHT22;56729;52.036;5.332;2022-11-20T00:42:02;-0.90;99.90
69533;DHT22;56729;52.036;5.332;2022-11-20T00:43:04;-0.90;99.90
69533;DHT22;56729;52.036;5.332;2022-11-20T00:44:06;-0.80;99.90
69533;DHT22;56729;52.036;5.332;2022-11-20T00:45:08;-0.90;99.90
69533;DHT22;56729;52.036;5.332;2022-11-20T00:46:13;-0.90;99.90
69533;DHT22;56729;52.036;5.332;2022-11-20T00:47:15;-0.90;99.90
69533;DHT22;56729;52.036;5.332;2022-11-20T00:48:17;-0.90;99.90
69533;DHT22;56729;52.036;5.332;2022-11-20T00:49:18;-0.90;99.90
69533;DHT22;56729;52.036;5.332;2022-11-20T00:50:21;-0.90;99.90
69533;DHT22;56729;52.036;5.332;2022-11-20T00:51:24;-0.90;99.90
69533;DHT22;56729;52.036;5.332;2022-11-20T00:52:26;-0.90;99.90
69533;DHT22;56729;52.036;5.332;2022-11-20T00:53:28;-0.90;99.90
69533;DHT22;56729;52.036;5.332;2022-11-20T00:54:30;-0.90;99.90
69533;DHT22;56729;52.036;5.332;2022-11-20T00:55:32;-0.90;99.90
69533;DHT22;56729;52.036;5.332;2022-11-20T00:56:34;-0.90;99.90
69533;DHT22;56729;52.036;5.332;2022-11-20T00:57:35;-0.90;99.90
69533;DHT22;56729;52.036;5.332;2022-11-20T00:58:39;-1.00;99.90
69533;DHT22;56729;52.036;5.332;2022-11-20T00:59:41;-0.90;99.90
69533;DHT22;56729;52.036;5.332;2022-11-20T01:00:43;-1.00;99.90
69533;DHT22;56729;52.036;5.332;2022-11-20T01:01:45;-1.00;99.90
69533;DHT22;56729;52.036;5.332;2022-11-20T01:02:47;-1.00;99.90
69533;DHT22;56729;52.036;5.332;2022-11-20T01:03:50;-1.00;99.90
69533;DHT22;56729;52.036;5.332;2022-11-20T01:04:52;-1.00;99.90
69533;DHT22;56729;52.036;5.332;2022-11-20T01:05:54;-1.10;99.90
69533;DHT22;56729;52.036;5.332;2022-11-20T01:06:56;-1.10;99.90
69533;DHT22;56729;52.036;5.332;2022-11-20T01:07:58;-1.10;99.90
69533;DHT22;56729;52.036;5.332;2022-11-20T01:09:03;-1.10;99.90
69533;DHT22;56729;52.036;5.332;2022-11-20T01:10:06;-1.10;99.90
69533;DHT22;56729;52.036;5.332;2022-11-20T01:11:11;-1.10;99.90
69533;DHT22;56729;52.036;5.332;2022-11-20T01:12:13;-1.10;99.90
69533;DHT22;56729;52.036;5.332;2022-11-20T01:13:14;-1.10;99.90
69533;DHT22;56729;52.036;5.332;2022-11-20T01:14:35;-1.10;99.90
69533;DHT22;56729;52.036;5.332;2022-11-20T01:15:37;-1.10;99.90
69533;DHT22;56729;52.036;5.332;2022-11-20T01:16:45;-1.10;99.90
69533;DHT22;56729;52.036;5.332;2022-11-20T01:17:48;-1.20;99.90
69533;DHT22;56729;52.036;5.332;2022-11-20T01:18:52;-1.10;99.90
69533;DHT22;56729;52.036;5.332;2022-11-20T01:19:56;-1.20;99.90
69533;DHT22;56729;52.036;5.332;2022-11-20T01:21:02;-1.20;99.90
69533;DHT22;56729;52.036;5.332;2022-11-20T01:22:05;-1.20;99.90
69533;DHT22;56729;52.036;5.332;2022-11-20T01:23:07;-1.10;99.90
69533;DHT22;56729;52.036;5.332;2022-11-20T01:24:12;-1.10;99.90
69533;DHT22;56729;52.036;5.332;2022-11-20T01:25:14;-1.20;99.90
69533;DHT22;56729;52.036;5.332;2022-11-20T01:26:21;-1.20;99.90
69533;DHT22;56729;52.036;5.332;2022-11-20T01:27:23;-1.10;99.90
69533;DHT22;56729;52.036;5.332;2022-11-20T01:28:24;-1.20;99.90
69533;DHT22;56729;52.036;5.332;2022-11-20T01:29:26;-1.20;99.90
69533;DHT22;56729;52.036;5.332;2022-11-20T01:30:28;-1.10;99.90
69533;DHT22;56729;52.036;5.332;2022-11-20T01:31:34;-1.10;99.90
69533;DHT22;56729;52.036;5.332;2022-11-20T01:32:36;-1.10;99.90
69533;DHT22;56729;52.036;5.332;2022-11-20T01:33:38;-1.20;99.90
69533;DHT22;56729;52.036;5.332;2022-11-20T01:34:40;-1.20;99.90
69533;DHT22;56729;52.036;5.332;2022-11-20T01:35:42;-1.20;99.90
69533;DHT22;56729;52.036;5.332;2022-11-20T01:36:44;-1.20;99.90
69533;DHT22;56729;52.036;5.332;2022-11-20T01:37:46;-1.20;99.90
69533;DHT22;56729;52.036;5.332;2022-11-20T01:38:52;-1.20;99.90
69533;DHT22;56729;52.036;5.332;2022-11-20T01:39:54;-1.20;99.90
69533;DHT22;56729;52.036;5.332;2022-11-20T01:40:56;-1.20;99.90
69533;DHT22;56729;52.036;5.332;2022-11-20T01:41:58;-1.20;99.90
69533;DHT22;56729;52.036;5.332;2022-11-20T01:43:19;-1.20;99.90
69533;DHT22;56729;52.036;5.332;2022-11-20T01:45:56;-1.40;99.90
69533;DHT22;56729;52.036;5.332;2022-11-20T01:47:02;-1.40;99.90
69533;DHT22;56729;52.036;5.332;2022-11-20T01:48:05;-1.50;99.90
69533;DHT22;56729;52.036;5.332;2022-11-20T01:49:11;-1.50;99.90
69533;DHT22;56729;52.036;5.332;2022-11-20T01:50:33;-1.50;99.90
69533;DHT22;56729;52.036;5.332;2022-11-20T01:51:44;-1.50;99.90
69533;DHT22;56729;52.036;5.332;2022-11-20T01:52:53;-1.50;99.90
69533;DHT22;56729;52.036;5.332;2022-11-20T01:53:58;-1.50;99.90
69533;DHT22;56729;52.036;5.332;2022-11-20T01:55:07;-1.50;99.90
69533;DHT22;56729;52.036;5.332;2022-11-20T01:56:12;-1.50;99.90
69533;DHT22;56729;52.036;5.332;2022-11-20T01:57:15;-1.60;99.90
69533;DHT22;56729;52.036;5.332;2022-11-20T01:58:27;-1.60;99.90
69533;DHT22;56729;52.036;5.332;2022-11-20T01:59:31;-1.60;99.90
69533;DHT22;56729;52.036;5.332;2022-11-20T02:00:33;-1.60;99.90
69533;DHT22;56729;52.036;5.332;2022-11-20T02:01:35;-1.60;99.90
69533;DHT22;56729;52.036;5.332;2022-11-20T02:02:39;-1.60;99.90
69533;DHT22;56729;52.036;5.332;2022-11-20T02:03:41;-1.60;99.90
69533;DHT22;56729;52.036;5.332;2022-11-20T02:04:45;-1.60;99.90
69533;DHT22;56729;52.036;5.332;2022-11-20T02:07:13;-1.50;99.90
69533;DHT22;56729;52.036;5.332;2022-11-20T02:08:16;-1.50;99.90
69533;DHT22;56729;52.036;5.332;2022-11-20T02:09:19;-1.50;99.90
69533;DHT22;56729;52.036;5.332;2022-11-20T02:10:21;-1.50;99.90
69533;DHT22;56729;52.036;5.332;2022-11-20T02:11:23;-1.50;99.90
69533;DHT22;56729;52.036;5.332;2022-11-20T02:12:25;-1.50;99.90
69533;DHT22;56729;52.036;5.332;2022-11-20T02:13:46;-1.50;99.90
69533;DHT22;56729;52.036;5.332;2022-11-20T02:14:49;-1.60;99.90
69533;DHT22;56729;52.036;5.332;2022-11-20T02:15:51;-1.60;99.90
69533;DHT22;56729;52.036;5.332;2022-11-20T02:16:55;-1.60;99.90
69533;DHT22;56729;52.036;5.332;2022-11-20T02:17:57;-1.60;99.90
69533;DHT22;56729;52.036;5.332;2022-11-20T02:19:01;-1.60;99.90
69533;DHT22;56729;52.036;5.332;2022-11-20T02:20:06;-1.60;99.90
69533;DHT22;56729;52.036;5.332;2022-11-20T02:22:32;-1.50;99.90
69533;DHT22;56729;52.036;5.332;2022-11-20T02:23:57;-1.60;99.90
69533;DHT22;56729;52.036;5.332;2022-11-20T02:25:01;-1.60;99.90
69533;DHT22;56729;52.036;5.332;2022-11-20T02:26:06;-1.60;99.90
69533;DHT22;56729;52.036;5.332;2022-11-20T02:27:11;-1.60;99.90
69533;DHT22;56729;52.036;5.332;2022-11-20T02:28:14;-1.60;99.90
69533;DHT22;56729;52.036;5.332;2022-11-20T02:29:23;-1.60;99.90
69533;DHT22;56729;52.036;5.332;2022-11-20T02:30:26;-1.60;99.90
69533;DHT22;56729;52.036;5.332;2022-11-20T02:31:28;-1.60;99.90
69533;DHT22;56729;52.036;5.332;2022-11-20T02:32:30;-1.60;99.90
69533;DHT22;56729;52.036;5.332;2022-11-20T02:33:33;-1.60;99.90
69533;DHT22;56729;52.036;5.332;2022-11-20T02:34:34;-1.60;99.90
69533;DHT22;56729;52.036;5.332;2022-11-20T02:35:41;-1.60;99.90
69533;DHT22;56729;52.036;5.332;2022-11-20T02:36:43;-1.60;99.90
69533;DHT22;56729;52.036;5.332;2022-11-20T02:37:48;-1.60;99.90
69533;DHT22;56729;52.036;5.332;2022-11-20T02:38:51;-1.70;99.90
69533;DHT22;56729;52.036;5.332;2022-11-20T02:39:53;-1.60;99.90
69533;DHT22;56729;52.036;5.332;2022-11-20T02:40:55;-1.60;99.90
69533;DHT22;56729;52.036;5.332;2022-11-20T02:41:57;-1.60;99.90
69533;DHT22;56729;52.036;5.332;2022-11-20T02:42:59;-1.60;99.90
69533;DHT22;56729;52.036;5.332;2022-11-20T02:44:01;-1.60;99.90
69533;DHT22;56729;52.036;5.332;2022-11-20T02:45:04;-1.60;99.90
69533;DHT22;56729;52.036;5.332;2022-11-20T02:46:07;-1.60;99.90
69533;DHT22;56729;52.036;5.332;2022-11-20T02:47:09;-1.60;99.90
69533;DHT22;56729;52.036;5.332;2022-11-20T02:48:11;-1.60;99.90
69533;DHT22;56729;52.036;5.332;2022-11-20T02:49:13;-1.60;99.90
69533;DHT22;56729;52.036;5.332;2022-11-20T02:50:15;-1.60;99.90
69533;DHT22;56729;52.036;5.332;2022-11-20T02:51:17;-1.60;99.90
69533;DHT22;56729;52.036;5.332;2022-11-20T02:52:19;-1.60;99.90
69533;DHT22;56729;52.036;5.332;2022-11-20T02:53:20;-1.60;99.90
69533;DHT22;56729;52.036;5.332;2022-11-20T02:54:23;-1.60;99.90
69533;DHT22;56729;52.036;5.332;2022-11-20T02:55:25;-1.60;99.90
69533;DHT22;56729;52.036;5.332;2022-11-20T02:56:27;-1.60;99.90
69533;DHT22;56729;52.036;5.332;2022-11-20T02:57:29;-1.70;99.90
69533;DHT22;56729;52.036;5.332;2022-11-20T02:58:32;-1.70;99.90
69533;DHT22;56729;52.036;5.332;2022-11-20T02:59:33;-1.70;99.90
69533;DHT22;56729;52.036;5.332;2022-11-20T03:00:36;-1.70;99.90
69533;DHT22;56729;52.036;5.332;2022-11-20T03:01:39;-1.80;99.90
69533;DHT22;56729;52.036;5.332;2022-11-20T03:02:41;-1.80;99.90
69533;DHT22;56729;52.036;5.332;2022-11-20T03:03:43;-1.80;99.90
69533;DHT22;56729;52.036;5.332;2022-11-20T03:04:45;-1.80;99.90
69533;DHT22;56729;52.036;5.332;2022-11-20T03:05:47;-1.80;99.90
69533;DHT22;56729;52.036;5.332;2022-11-20T03:06:48;-1.80;99.90
69533;DHT22;56729;52.036;5.332;2022-11-20T03:07:50;-1.80;99.90
69533;DHT22;56729;52.036;5.332;2022-11-20T03:08:52;-1.80;99.90
69533;DHT22;56729;52.036;5.332;2022-11-20T03:09:54;-1.90;99.90
69533;DHT22;56729;52.036;5.332;2022-11-20T03:10:56;-1.80;99.90
69533;DHT22;56729;52.036;5.332;2022-11-20T03:11:57;-1.90;99.90
69533;DHT22;56729;52.036;5.332;2022-11-20T03:12:59;-1.80;99.90
69533;DHT22;56729;52.036;5.332;2022-11-20T03:14:03;-1.90;99.90
69533;DHT22;56729;52.036;5.332;2022-11-20T03:15:05;-1.80;99.90
69533;DHT22;56729;52.036;5.332;2022-11-20T03:16:15;-1.80;99.90
69533;DHT22;56729;52.036;5.332;2022-11-20T03:17:17;-1.80;99.90
69533;DHT22;56729;52.036;5.332;2022-11-20T03:18:19;-1.80;99.90
69533;DHT22;56729;52.036;5.332;2022-11-20T03:19:21;-1.80;99.90
69533;DHT22;56729;52.036;5.332;2022-11-20T03:20:23;-1.80;99.90
69533;DHT22;56729;52.036;5.332;2022-11-20T03:21:25;-1.80;99.90
69533;DHT22;56729;52.036;5.332;2022-11-20T03:22:29;-1.80;99.90
69533;DHT22;56729;52.036;5.332;2022-11-20T03:23:33;-1.80;99.90
69533;DHT22;56729;52.036;5.332;2022-11-20T03:24:35;-1.80;99.90
69533;DHT22;56729;52.036;5.332;2022-11-20T03:25:38;-1.90;99.90
69533;DHT22;56729;52.036;5.332;2022-11-20T03:26:41;-1.90;99.90
69533;DHT22;56729;52.036;5.332;2022-11-20T03:27:43;-2.00;99.90
69533;DHT22;56729;52.036;5.332;2022-11-20T03:28:50;-2.00;99.90
69533;DHT22;56729;52.036;5.332;2022-11-20T03:29:52;-2.00;99.90
69533;DHT22;56729;52.036;5.332;2022-11-20T03:30:54;-2.00;99.90
69533;DHT22;56729;52.036;5.332;2022-11-20T03:31:56;-2.00;99.90
69533;DHT22;56729;52.036;5.332;2022-11-20T03:32:58;-2.10;99.90
69533;DHT22;56729;52.036;5.332;2022-11-20T03:34:00;-2.10;99.90
69533;DHT22;56729;52.036;5.332;2022-11-20T03:35:02;-2.10;99.90
69533;DHT22;56729;52.036;5.332;2022-11-20T03:36:06;-2.20;99.90
69533;DHT22;56729;52.036;5.332;2022-11-20T03:37:08;-2.20;99.90
69533;DHT22;56729;52.036;5.332;2022-11-20T03:38:10;-2.20;99.90
69533;DHT22;56729;52.036;5.332;2022-11-20T03:39:12;-2.20;99.90
69533;DHT22;56729;52.036;5.332;2022-11-20T03:40:14;-2.20;99.90
69533;DHT22;56729;52.036;5.332;2022-11-20T03:41:22;-2.20;99.90
69533;DHT22;56729;52.036;5.332;2022-11-20T03:42:24;-2.30;99.90
69533;DHT22;56729;52.036;5.332;2022-11-20T03:44:00;-2.30;99.90
69533;DHT22;56729;52.036;5.332;2022-11-20T03:45:02;-2.30;99.90
69533;DHT22;56729;52.036;5.332;2022-11-20T03:46:05;-2.20;99.90
69533;DHT22;56729;52.036;5.332;2022-11-20T03:47:07;-2.30;99.90
69533;DHT22;56729;52.036;5.332;2022-11-20T03:48:09;-2.20;99.90
69533;DHT22;56729;52.036;5.332;2022-11-20T03:49:11;-2.30;99.90
69533;DHT22;56729;52.036;5.332;2022-11-20T03:50:13;-2.20;99.90
69533;DHT22;56729;52.036;5.332;2022-11-20T03:51:23;-2.20;99.90
69533;DHT22;56729;52.036;5.332;2022-11-20T03:52:25;-2.20;99.90
69533;DHT22;56729;52.036;5.332;2022-11-20T03:53:27;-2.20;99.90
69533;DHT22;56729;52.036;5.332;2022-11-20T03:54:29;-2.30;99.90
69533;DHT22;56729;52.036;5.332;2022-11-20T03:55:31;-2.30;99.90
69533;DHT22;56729;52.036;5.332;2022-11-20T03:56:36;-2.20;99.90
69533;DHT22;56729;52.036;5.332;2022-11-20T03:57:37;-2.30;99.90
69533;DHT22;56729;52.036;5.332;2022-11-20T03:58:40;-2.30;99.90
69533;DHT22;56729;52.036;5.332;2022-11-20T03:59:42;-2.30;99.90
69533;DHT22;56729;52.036;5.332;2022-11-20T04:00:44;-2.30;99.90
69533;DHT22;56729;52.036;5.332;2022-11-20T04:01:46;-2.30;99.90
69533;DHT22;56729;52.036;5.332;2022-11-20T04:02:50;-2.30;99.90
69533;DHT22;56729;52.036;5.332;2022-11-20T04:03:53;-2.30;99.90
69533;DHT22;56729;52.036;5.332;2022-11-20T04:04:56;-2.40;99.90
69533;DHT22;56729;52.036;5.332;2022-11-20T04:06:05;-2.40;99.90
69533;DHT22;56729;52.036;5.332;2022-11-20T04:07:08;-2.40;99.90
69533;DHT22;56729;52.036;5.332;2022-11-20T04:08:10;-2.50;99.90
69533;DHT22;56729;52.036;5.332;2022-11-20T04:09:12;-2.50;99.90
69533;DHT22;56729;52.036;5.332;2022-11-20T04:10:14;-2.50;99.90
69533;DHT22;56729;52.036;5.332;2022-11-20T04:11:18;-2.50;99.90
69533;DHT22;56729;52.036;5.332;2022-11-20T04:12:21;-2.50;99.90
69533;DHT22;56729;52.036;5.332;2022-11-20T04:13:23;-2.50;99.90
69533;DHT22;56729;52.036;5.332;2022-11-20T04:14:25;-2.50;99.90
69533;DHT22;56729;52.036;5.332;2022-11-20T04:15:26;-2.50;99.90
69533;DHT22;56729;52.036;5.332;2022-11-20T04:16:30;-2.50;99.90
69533;DHT22;56729;52.036;5.332;2022-11-20T04:17:33;-2.50;99.90
69533;DHT22;56729;52.036;5.332;2022-11-20T04:18:35;-2.50;99.90
69533;DHT22;56729;52.036;5.332;2022-11-20T04:19:37;-2.50;99.90
69533;DHT22;56729;52.036;5.332;2022-11-20T04:20:38;-2.60;99.90
69533;DHT22;56729;52.036;5.332;2022-11-20T04:21:41;-2.60;99.90
69533;DHT22;56729;52.036;5.332;2022-11-20T04:22:43;-2.60;99.90
69533;DHT22;56729;52.036;5.332;2022-11-20T04:23:45;-2.70;99.90
69533;DHT22;56729;52.036;5.332;2022-11-20T04:24:47;-2.70;99.90
69533;DHT22;56729;52.036;5.332;2022-11-20T04:25:48;-2.70;99.90
69533;DHT22;56729;52.036;5.332;2022-11-20T04:26:50;-2.70;99.90
69533;DHT22;56729;52.036;5.332;2022-11-20T04:27:52;-2.70;99.90
69533;DHT22;56729;52.036;5.332;2022-11-20T04:28:54;-2.70;99.90
69533;DHT22;56729;52.036;5.332;2022-11-20T04:29:57;-2.70;99.90
69533;DHT22;56729;52.036;5.332;2022-11-20T04:31:07;-2.70;99.90
69533;DHT22;56729;52.036;5.332;2022-11-20T04:32:09;-2.70;99.90
69533;DHT22;56729;52.036;5.332;2022-11-20T04:33:12;-2.70;99.90
69533;DHT22;56729;52.036;5.332;2022-11-20T04:34:14;-2.70;99.90
69533;DHT22;56729;52.036;5.332;2022-11-20T04:35:15;-2.60;99.90
69533;DHT22;56729;52.036;5.332;2022-11-20T04:36:23;-2.60;99.90
69533;DHT22;56729;52.036;5.332;2022-11-20T04:37:25;-2.60;99.90
69533;DHT22;56729;52.036;5.332;2022-11-20T04:38:28;-2.60;99.90
69533;DHT22;56729;52.036;5.332;2022-11-20T04:39:29;-2.60;99.90
69533;DHT22;56729;52.036;5.332;2022-11-20T04:40:31;-2.60;99.90
69533;DHT22;56729;52.036;5.332;2022-11-20T04:41:35;-2.60;99.90
69533;DHT22;56729;52.036;5.332;2022-11-20T04:42:37;-2.60;99.90
69533;DHT22;56729;52.036;5.332;2022-11-20T04:43:39;-2.60;99.90
69533;DHT22;56729;52.036;5.332;2022-11-20T04:44:40;-2.60;99.90
69533;DHT22;56729;52.036;5.332;2022-11-20T04:45:42;-2.60;99.90
69533;DHT22;56729;52.036;5.332;2022-11-20T04:46:44;-2.60;99.90
69533;DHT22;56729;52.036;5.332;2022-11-20T04:47:46;-2.60;99.90
69533;DHT22;56729;52.036;5.332;2022-11-20T04:48:47;-2.60;99.90
69533;DHT22;56729;52.036;5.332;2022-11-20T04:49:49;-2.60;99.90
69533;DHT22;56729;52.036;5.332;2022-11-20T04:50:51;-2.60;99.90
69533;DHT22;56729;52.036;5.332;2022-11-20T04:51:54;-2.70;99.90
69533;DHT22;56729;52.036;5.332;2022-11-20T04:52:55;-2.70;99.90
69533;DHT22;56729;52.036;5.332;2022-11-20T04:53:57;-2.70;99.90
69533;DHT22;56729;52.036;5.332;2022-11-20T04:54:59;-2.70;99.90
69533;DHT22;56729;52.036;5.332;2022-11-20T04:56:04;-2.70;99.90
69533;DHT22;56729;52.036;5.332;2022-11-20T04:57:06;-2.70;99.90
69533;DHT22;56729;52.036;5.332;2022-11-20T04:58:16;-2.60;99.90
69533;DHT22;56729;52.036;5.332;2022-11-20T04:59:19;-2.60;99.90
69533;DHT22;56729;52.036;5.332;2022-11-20T05:00:22;-2.60;99.90
69533;DHT22;56729;52.036;5.332;2022-11-20T05:01:24;-2.60;99.90
69533;DHT22;56729;52.036;5.332;2022-11-20T05:02:27;-2.60;99.90
69533;DHT22;56729;52.036;5.332;2022-11-20T05:03:29;-2.60;99.90
69533;DHT22;56729;52.036;5.332;2022-11-20T05:04:31;-2.60;99.90
69533;DHT22;56729;52.036;5.332;2022-11-20T05:05:36;-2.70;99.90
69533;DHT22;56729;52.036;5.332;2022-11-20T05:06:38;-2.70;99.90
69533;DHT22;56729;52.036;5.332;2022-11-20T05:07:39;-2.70;99.90
69533;DHT22;56729;52.036;5.332;2022-11-20T05:08:42;-2.80;99.90
69533;DHT22;56729;52.036;5.332;2022-11-20T05:09:43;-2.80;99.90
69533;DHT22;56729;52.036;5.332;2022-11-20T05:10:46;-2.70;99.90
69533;DHT22;56729;52.036;5.332;2022-11-20T05:11:48;-2.70;99.90
69533;DHT22;56729;52.036;5.332;2022-11-20T05:12:52;-2.70;99.90
69533;DHT22;56729;52.036;5.332;2022-11-20T05:13:55;-2.70;99.90
69533;DHT22;56729;52.036;5.332;2022-11-20T05:14:57;-2.70;99.90
69533;DHT22;56729;52.036;5.332;2022-11-20T05:16:10;-2.70;99.90
69533;DHT22;56729;52.036;5.332;2022-11-20T05:17:12;-2.70;99.90
69533;DHT22;56729;52.036;5.332;2022-11-20T05:18:14;-2.70;99.90
69533;DHT22;56729;52.036;5.332;2022-11-20T05:19:16;-2.70;99.90
69533;DHT22;56729;52.036;5.332;2022-11-20T05:20:18;-2.70;99.90
69533;DHT22;56729;52.036;5.332;2022-11-20T05:21:22;-2.70;99.90
69533;DHT22;56729;52.036;5.332;2022-11-20T05:22:24;-2.70;99.90
69533;DHT22;56729;52.036;5.332;2022-11-20T05:23:27;-2.70;99.90
69533;DHT22;56729;52.036;5.332;2022-11-20T05:24:29;-2.70;99.90
69533;DHT22;56729;52.036;5.332;2022-11-20T05:25:31;-2.70;99.90
69533;DHT22;56729;52.036;5.332;2022-11-20T05:26:35;-2.70;99.90
69533;DHT22;56729;52.036;5.332;2022-11-20T05:27:37;-2.70;99.90
69533;DHT22;56729;52.036;5.332;2022-11-20T05:28:39;-2.70;99.90
69533;DHT22;56729;52.036;5.332;2022-11-20T05:29:41;-2.70;99.90
69533;DHT22;56729;52.036;5.332;2022-11-20T05:30:43;-2.70;99.90
69533;DHT22;56729;52.036;5.332;2022-11-20T05:31:45;-2.70;99.90
69533;DHT22;56729;52.036;5.332;2022-11-20T05:32:46;-2.80;99.90
69533;DHT22;56729;52.036;5.332;2022-11-20T05:33:48;-2.80;99.90
69533;DHT22;56729;52.036;5.332;2022-11-20T05:34:51;-2.80;99.90
69533;DHT22;56729;52.036;5.332;2022-11-20T05:35:53;-2.80;99.90
69533;DHT22;56729;52.036;5.332;2022-11-20T05:36:59;-2.80;99.90
69533;DHT22;56729;52.036;5.332;2022-11-20T05:38:01;-2.90;99.90
69533;DHT22;56729;52.036;5.332;2022-11-20T05:39:03;-2.90;99.90
69533;DHT22;56729;52.036;5.332;2022-11-20T05:40:05;-2.90;99.90
69533;DHT22;56729;52.036;5.332;2022-11-20T05:41:13;-2.90;99.90
69533;DHT22;56729;52.036;5.332;2022-11-20T05:42:15;-2.90;99.90
69533;DHT22;56729;52.036;5.332;2022-11-20T05:43:34;-2.90;99.90
69533;DHT22;56729;52.036;5.332;2022-11-20T05:44:37;-2.90;99.90
69533;DHT22;56729;52.036;5.332;2022-11-20T05:45:39;-2.90;99.90
69533;DHT22;56729;52.036;5.332;2022-11-20T05:46:41;-2.90;99.90
69533;DHT22;56729;52.036;5.332;2022-11-20T05:47:43;-2.90;99.90
69533;DHT22;56729;52.036;5.332;2022-11-20T05:48:45;-2.90;99.90
69533;DHT22;56729;52.036;5.332;2022-11-20T05:49:47;-2.90;99.90
69533;DHT22;56729;52.036;5.332;2022-11-20T05:50:49;-2.90;99.90
69533;DHT22;56729;52.036;5.332;2022-11-20T05:51:51;-2.90;99.90
69533;DHT22;56729;52.036;5.332;2022-11-20T05:52:53;-2.90;99.90
69533;DHT22;56729;52.036;5.332;2022-11-20T05:53:58;-2.90;99.90
69533;DHT22;56729;52.036;5.332;2022-11-20T05:55:00;-2.90;99.90
69533;DHT22;56729;52.036;5.332;2022-11-20T05:56:09;-2.90;99.90
69533;DHT22;56729;52.036;5.332;2022-11-20T05:57:12;-2.90;99.90
69533;DHT22;56729;52.036;5.332;2022-11-20T05:58:13;-2.90;99.90
69533;DHT22;56729;52.036;5.332;2022-11-20T05:59:15;-2.90;99.90
69533;DHT22;56729;52.036;5.332;2022-11-20T06:00:17;-2.90;99.90
69533;DHT22;56729;52.036;5.332;2022-11-20T06:01:22;-2.90;99.90
69533;DHT22;56729;52.036;5.332;2022-11-20T06:02:24;-2.90;99.90
69533;DHT22;56729;52.036;5.332;2022-11-20T06:03:26;-2.90;99.90
69533;DHT22;56729;52.036;5.332;2022-11-20T06:04:28;-2.90;99.90
69533;DHT22;56729;52.036;5.332;2022-11-20T06:05:30;-3.00;99.90
69533;DHT22;56729;52.036;5.332;2022-11-20T06:06:32;-3.00;99.90
69533;DHT22;56729;52.036;5.332;2022-11-20T06:07:34;-3.00;99.90
69533;DHT22;56729;52.036;5.332;2022-11-20T06:08:35;-3.00;99.90
69533;DHT22;56729;52.036;5.332;2022-11-20T06:09:37;-3.00;99.90
69533;DHT22;56729;52.036;5.332;2022-11-20T06:10:41;-3.00;99.90
69533;DHT22;56729;52.036;5.332;2022-11-20T06:11:42;-3.00;99.90
69533;DHT22;56729;52.036;5.332;2022-11-20T06:12:44;-3.00;99.90
69533;DHT22;56729;52.036;5.332;2022-11-20T06:13:47;-3.00;99.90
69533;DHT22;56729;52.036;5.332;2022-11-20T06:14:49;-3.00;99.90
69533;DHT22;56729;52.036;5.332;2022-11-20T06:15:52;-3.00;99.90
69533;DHT22;56729;52.036;5.332;2022-11-20T06:16:54;-3.00;99.90
69533;DHT22;56729;52.036;5.332;2022-11-20T06:17:56;-3.00;99.90
69533;DHT22;56729;52.036;5.332;2022-11-20T06:18:58;-3.00;99.90
69533;DHT22;56729;52.036;5.332;2022-11-20T06:20:01;-3.00;99.90
69533;DHT22;56729;52.036;5.332;2022-11-20T06:21:12;-3.00;99.90
69533;DHT22;56729;52.036;5.332;2022-11-20T06:22:15;-3.00;99.90
69533;DHT22;56729;52.036;5.332;2022-11-20T06:23:17;-3.10;99.90
69533;DHT22;56729;52.036;5.332;2022-11-20T06:24:18;-3.10;99.90
69533;DHT22;56729;52.036;5.332;2022-11-20T06:25:20;-3.20;99.90
69533;DHT22;56729;52.036;5.332;2022-11-20T06:26:25;-3.20;99.90
69533;DHT22;56729;52.036;5.332;2022-11-20T06:27:27;-3.20;99.90
69533;DHT22;56729;52.036;5.332;2022-11-20T06:28:29;-3.30;99.90
69533;DHT22;56729;52.036;5.332;2022-11-20T06:29:30;-3.30;99.90
69533;DHT22;56729;52.036;5.332;2022-11-20T06:30:35;-3.30;99.90
69533;DHT22;56729;52.036;5.332;2022-11-20T06:31:37;-3.30;99.90
69533;DHT22;56729;52.036;5.332;2022-11-20T06:32:39;-3.40;99.90
69533;DHT22;56729;52.036;5.332;2022-11-20T06:33:42;-3.40;99.90
69533;DHT22;56729;52.036;5.332;2022-11-20T06:34:44;-3.30;99.90
69533;DHT22;56729;52.036;5.332;2022-11-20T06:35:45;-3.40;99.90
69533;DHT22;56729;52.036;5.332;2022-11-20T06:36:47;-3.40;99.90
69533;DHT22;56729;52.036;5.332;2022-11-20T06:37:49;-3.30;99.90
69533;DHT22;56729;52.036;5.332;2022-11-20T06:38:51;-3.30;99.90
69533;DHT22;56729;52.036;5.332;2022-11-20T06:39:53;-3.30;99.90
69533;DHT22;56729;52.036;5.332;2022-11-20T06:40:54;-3.30;99.90
69533;DHT22;56729;52.036;5.332;2022-11-20T06:41:56;-3.20;99.90
69533;DHT22;56729;52.036;5.332;2022-11-20T06:42:59;-3.20;99.90